sensor_id;sensor_type;location;lat;lon;timestamp;pressure;altitude;pressure_sealevel;temperature;humidity
56456;BME280;42354;53.218;6.564;2023-02-22T00:00:51;47247.91;;;-142.92;100.00
56456;BME280;42354;53.218;6.564;2023-02-22T00:03:20;47245.84;;;-142.92;100.00
56456;BME280;42354;53.218;6.564;2023-02-22T00:05:56;47254.06;;;-142.92;100.00
56456;BME280;42354;53.218;6.564;2023-02-22T00:08:27;47249.97;;;-142.92;100.00
56456;BME280;42354;53.218;6.564;2023-02-22T00:11:04;47247.91;;;-142.92;100.00
56456;BME280;42354;53.218;6.564;2023-02-22T00:13:35;47245.84;;;-142.92;100.00
56456;BME280;42354;53.218;6.564;2023-02-22T00:16:01;47254.06;;;-142.92;100.00
56456;BME280;42354;53.218;6.564;2023-02-22T00:18:27;47247.91;;;-142.92;100.00
56456;BME280;42354;53.218;6.564;2023-02-22T00:20:57;47258.16;;;-142.92;100.00
56456;BME280;42354;53.218;6.564;2023-02-22T00:23:25;47247.91;;;-142.92;100.00
56456;BME280;42354;53.218;6.564;2023-02-22T00:25:53;47254.06;;;-142.92;100.00
56456;BME280;42354;53.218;6.564;2023-02-22T00:28:19;47243.81;;;-142.92;100.00
56456;BME280;42354;53.218;6.564;2023-02-22T00:30:44;47245.84;;;-142.92;100.00
56456;BME280;42354;53.218;6.564;2023-02-22T00:33:13;47243.81;;;-142.92;100.00
56456;BME280;42354;53.218;6.564;2023-02-22T00:35:40;47247.91;;;-142.92;100.00
56456;BME280;42354;53.218;6.564;2023-02-22T00:38:06;47243.81;;;-142.92;100.00
56456;BME280;42354;53.218;6.564;2023-02-22T00:40:33;47245.84;;;-142.92;100.00
56456;BME280;42354;53.218;6.564;2023-02-22T00:43:03;47243.81;;;-142.92;100.00
56456;BME280;42354;53.218;6.564;2023-02-22T00:45:31;47249.97;;;-142.92;100.00
56456;BME280;42354;53.218;6.564;2023-02-22T00:48:01;47252.00;;;-142.92;100.00
56456;BME280;42354;53.218;6.564;2023-02-22T00:50:29;47249.97;;;-142.92;100.00
56456;BME280;42354;53.218;6.564;2023-02-22T00:52:55;47260.22;;;-142.92;100.00
56456;BME280;42354;53.218;6.564;2023-02-22T00:55:27;47247.91;;;-142.92;100.00
56456;BME280;42354;53.218;6.564;2023-02-22T00:57:53;47247.91;;;-142.92;100.00
56456;BME280;42354;53.218;6.564;2023-02-22T01:02:48;47245.84;;;-142.92;100.00
56456;BME280;42354;53.218;6.564;2023-02-22T01:05:18;47247.91;;;-142.92;100.00
56456;BME280;42354;53.218;6.564;2023-02-22T01:07:45;47245.84;;;-142.92;100.00
56456;BME280;42354;53.218;6.564;2023-02-22T01:10:12;47245.84;;;-142.92;100.00
56456;BME280;42354;53.218;6.564;2023-02-22T01:12:37;47249.97;;;-142.92;100.00
56456;BME280;42354;53.218;6.564;2023-02-22T01:15:05;47252.00;;;-142.92;100.00
56456;BME280;42354;53.218;6.564;2023-02-22T01:17:30;47245.84;;;-142.92;100.00
56456;BME280;42354;53.218;6.564;2023-02-22T01:19:56;47249.97;;;-142.92;100.00
56456;BME280;42354;53.218;6.564;2023-02-22T01:22:22;47243.81;;;-142.92;100.00
56456;BME280;42354;53.218;6.564;2023-02-22T01:24:48;47243.81;;;-142.92;100.00
56456;BME280;42354;53.218;6.564;2023-02-22T01:27:14;47254.06;;;-142.92;100.00
56456;BME280;42354;53.218;6.564;2023-02-22T01:29:40;47249.97;;;-142.92;100.00
56456;BME280;42354;53.218;6.564;2023-02-22T01:32:05;47254.06;;;-142.92;100.00
56456;BME280;42354;53.218;6.564;2023-02-22T01:34:31;47249.97;;;-142.92;100.00
56456;BME280;42354;53.218;6.564;2023-02-22T01:36:57;47249.97;;;-142.92;100.00
56456;BME280;42354;53.218;6.564;2023-02-22T01:39:23;47252.00;;;-142.92;100.00
56456;BME280;42354;53.218;6.564;2023-02-22T01:41:48;47247.91;;;-142.92;100.00
56456;BME280;42354;53.218;6.564;2023-02-22T01:46:42;47245.84;;;-142.92;100.00
56456;BME280;42354;53.218;6.564;2023-02-22T01:49:07;47241.75;;;-142.92;100.00
56456;BME280;42354;53.218;6.564;2023-02-22T01:51:37;47249.97;;;-142.92;100.00
56456;BME280;42354;53.218;6.564;2023-02-22T01:54:17;47247.91;;;-142.92;100.00
56456;BME280;42354;53.218;6.564;2023-02-22T01:57:02;47245.84;;;-142.92;100.00
56456;BME280;42354;53.218;6.564;2023-02-22T01:59:32;47247.91;;;-142.92;100.00
56456;BME280;42354;53.218;6.564;2023-02-22T02:01:59;47247.91;;;-142.92;100.00
56456;BME280;42354;53.218;6.564;2023-02-22T02:04:25;47237.66;;;-142.92;100.00
56456;BME280;42354;53.218;6.564;2023-02-22T02:06:52;47252.00;;;-142.92;100.00
56456;BME280;42354;53.218;6.564;2023-02-22T02:09:35;47247.91;;;-142.92;100.00
56456;BME280;42354;53.218;6.564;2023-02-22T02:12:01;47243.81;;;-142.92;100.00
56456;BME280;42354;53.218;6.564;2023-02-22T02:14:29;47245.84;;;-142.92;100.00
56456;BME280;42354;53.218;6.564;2023-02-22T02:16:57;47258.16;;;-142.92;100.00
56456;BME280;42354;53.218;6.564;2023-02-22T02:19:53;47241.75;;;-142.92;100.00
56456;BME280;42354;53.218;6.564;2023-02-22T02:34:04;47247.91;;;-142.92;100.00
56456;BME280;42354;53.218;6.564;2023-02-22T02:39:27;47239.69;;;-142.92;100.00
56456;BME280;42354;53.218;6.564;2023-02-22T02:41:54;47235.59;;;-142.92;100.00
56456;BME280;42354;53.218;6.564;2023-02-22T02:44:27;47247.91;;;-142.92;100.00
56456;BME280;42354;53.218;6.564;2023-02-22T02:49:28;47247.91;;;-142.92;100.00
56456;BME280;42354;53.218;6.564;2023-02-22T02:51:55;47243.81;;;-142.92;100.00
56456;BME280;42354;53.218;6.564;2023-02-22T02:54:22;47235.59;;;-142.92;100.00
56456;BME280;42354;53.218;6.564;2023-02-22T02:56:49;47249.97;;;-142.92;100.00
56456;BME280;42354;53.218;6.564;2023-02-22T02:59:28;47256.13;;;-142.92;100.00
56456;BME280;42354;53.218;6.564;2023-02-22T03:20:31;47245.84;;;-142.92;100.00
56456;BME280;42354;53.218;6.564;2023-02-22T03:23:44;47249.97;;;-142.92;100.00
56456;BME280;42354;53.218;6.564;2023-02-22T03:26:04;47249.97;;;-142.92;100.00
56456;BME280;42354;53.218;6.564;2023-02-22T03:28:32;47256.13;;;-142.92;100.00
56456;BME280;42354;53.218;6.564;2023-02-22T03:31:05;47241.75;;;-142.92;100.00
56456;BME280;42354;53.218;6.564;2023-02-22T03:33:36;47249.97;;;-142.92;100.00
56456;BME280;42354;53.218;6.564;2023-02-22T03:38:35;47245.84;;;-142.92;100.00
56456;BME280;42354;53.218;6.564;2023-02-22T03:41:03;47249.97;;;-142.92;100.00
56456;BME280;42354;53.218;6.564;2023-02-22T03:43:42;47245.84;;;-142.92;100.00
56456;BME280;42354;53.218;6.564;2023-02-22T03:46:11;47249.97;;;-142.92;100.00
56456;BME280;42354;53.218;6.564;2023-02-22T03:51:09;47241.75;;;-142.92;100.00
56456;BME280;42354;53.218;6.564;2023-02-22T03:53:35;47245.84;;;-142.92;100.00
56456;BME280;42354;53.218;6.564;2023-02-22T03:56:04;47256.13;;;-142.92;100.00
56456;BME280;42354;53.218;6.564;2023-02-22T03:58:33;47249.97;;;-142.92;100.00
56456;BME280;42354;53.218;6.564;2023-02-22T04:01:00;47258.16;;;-142.92;100.00
56456;BME280;42354;53.218;6.564;2023-02-22T04:03:27;47254.06;;;-142.92;100.00
56456;BME280;42354;53.218;6.564;2023-02-22T04:05:52;47241.75;;;-142.92;100.00
56456;BME280;42354;53.218;6.564;2023-02-22T04:08:18;47247.91;;;-142.92;100.00
56456;BME280;42354;53.218;6.564;2023-02-22T04:10:43;47245.84;;;-142.92;100.00
56456;BME280;42354;53.218;6.564;2023-02-22T04:13:09;47247.91;;;-142.92;100.00
56456;BME280;42354;53.218;6.564;2023-02-22T04:15:35;47245.84;;;-142.92;100.00
56456;BME280;42354;53.218;6.564;2023-02-22T04:18:00;47245.84;;;-142.92;100.00
56456;BME280;42354;53.218;6.564;2023-02-22T04:20:26;47247.91;;;-142.92;100.00
56456;BME280;42354;53.218;6.564;2023-02-22T04:22:51;47245.84;;;-142.92;100.00
56456;BME280;42354;53.218;6.564;2023-02-22T04:25:17;47245.84;;;-142.92;100.00
56456;BME280;42354;53.218;6.564;2023-02-22T04:27:43;47254.06;;;-142.92;100.00
56456;BME280;42354;53.218;6.564;2023-02-22T04:30:10;47254.06;;;-142.92;100.00
56456;BME280;42354;53.218;6.564;2023-02-22T04:32:36;47247.91;;;-142.92;100.00
56456;BME280;42354;53.218;6.564;2023-02-22T04:35:02;47247.91;;;-142.92;100.00
56456;BME280;42354;53.218;6.564;2023-02-22T04:37:28;47249.97;;;-142.92;100.00
56456;BME280;42354;53.218;6.564;2023-02-22T04:39:53;47252.00;;;-142.92;100.00
56456;BME280;42354;53.218;6.564;2023-02-22T04:42:19;47249.97;;;-142.92;100.00
56456;BME280;42354;53.218;6.564;2023-02-22T04:44:44;47241.75;;;-142.92;100.00
56456;BME280;42354;53.218;6.564;2023-02-22T04:47:09;47249.97;;;-142.92;100.00
56456;BME280;42354;53.218;6.564;2023-02-22T04:49:35;47241.75;;;-142.92;100.00
56456;BME280;42354;53.218;6.564;2023-02-22T04:52:00;47252.00;;;-142.92;100.00
56456;BME280;42354;53.218;6.564;2023-02-22T04:54:25;47254.06;;;-142.92;100.00
56456;BME280;42354;53.218;6.564;2023-02-22T04:56:51;47249.97;;;-142.92;100.00
56456;BME280;42354;53.218;6.564;2023-02-22T04:59:16;47249.97;;;-142.92;100.00
56456;BME280;42354;53.218;6.564;2023-02-22T05:01:43;47249.97;;;-142.92;100.00
56456;BME280;42354;53.218;6.564;2023-02-22T05:04:10;47241.75;;;-142.92;100.00
56456;BME280;42354;53.218;6.564;2023-02-22T05:06:36;47245.84;;;-142.92;100.00
56456;BME280;42354;53.218;6.564;2023-02-22T05:09:01;47241.75;;;-142.92;100.00
56456;BME280;42354;53.218;6.564;2023-02-22T05:11:28;47249.97;;;-142.92;100.00
56456;BME280;42354;53.218;6.564;2023-02-22T05:13:54;47249.97;;;-142.92;100.00
56456;BME280;42354;53.218;6.564;2023-02-22T05:16:20;47252.00;;;-142.92;100.00
56456;BME280;42354;53.218;6.564;2023-02-22T05:18:47;47249.97;;;-142.92;100.00
56456;BME280;42354;53.218;6.564;2023-02-22T05:21:12;47249.97;;;-142.92;100.00
56456;BME280;42354;53.218;6.564;2023-02-22T05:23:38;47245.84;;;-142.92;100.00
56456;BME280;42354;53.218;6.564;2023-02-22T05:26:03;47256.13;;;-142.92;100.00
56456;BME280;42354;53.218;6.564;2023-02-22T05:28:31;47241.75;;;-142.92;100.00
56456;BME280;42354;53.218;6.564;2023-02-22T05:30:58;47252.00;;;-142.92;100.00
56456;BME280;42354;53.218;6.564;2023-02-22T05:33:23;47245.84;;;-142.92;100.00
56456;BME280;42354;53.218;6.564;2023-02-22T05:35:48;47249.97;;;-142.92;100.00
56456;BME280;42354;53.218;6.564;2023-02-22T05:38:15;47231.50;;;-142.92;100.00
56456;BME280;42354;53.218;6.564;2023-02-22T05:40:41;47235.59;;;-142.92;100.00
56456;BME280;42354;53.218;6.564;2023-02-22T05:43:07;47233.53;;;-142.92;100.00
56456;BME280;42354;53.218;6.564;2023-02-22T05:45:33;47225.34;;;-142.92;100.00
56456;BME280;42354;53.218;6.564;2023-02-22T05:47:59;47221.22;;;-142.92;100.00
56456;BME280;42354;53.218;6.564;2023-02-22T05:50:25;47229.44;;;-142.92;100.00
56456;BME280;42354;53.218;6.564;2023-02-22T05:52:50;47229.44;;;-142.92;100.00
56456;BME280;42354;53.218;6.564;2023-02-22T05:55:18;47227.38;;;-142.92;100.00
56456;BME280;42354;53.218;6.564;2023-02-22T05:57:45;47221.22;;;-142.92;100.00
56456;BME280;42354;53.218;6.564;2023-02-22T06:00:16;47221.22;;;-142.92;100.00
56456;BME280;42354;53.218;6.564;2023-02-22T06:02:42;47215.06;;;-142.92;100.00
56456;BME280;42354;53.218;6.564;2023-02-22T06:05:07;47221.22;;;-142.92;100.00
56456;BME280;42354;53.218;6.564;2023-02-22T06:07:34;47225.34;;;-142.92;100.00
56456;BME280;42354;53.218;6.564;2023-02-22T06:09:59;47219.19;;;-142.92;100.00
56456;BME280;42354;53.218;6.564;2023-02-22T06:12:25;47221.22;;;-142.92;100.00
56456;BME280;42354;53.218;6.564;2023-02-22T06:14:53;47215.06;;;-142.92;100.00
56456;BME280;42354;53.218;6.564;2023-02-22T06:17:18;47225.34;;;-142.92;100.00
56456;BME280;42354;53.218;6.564;2023-02-22T06:19:53;47206.88;;;-142.92;100.00
56456;BME280;42354;53.218;6.564;2023-02-22T06:22:20;47213.03;;;-142.92;100.00
56456;BME280;42354;53.218;6.564;2023-02-22T06:24:46;47204.81;;;-142.92;100.00
56456;BME280;42354;53.218;6.564;2023-02-22T06:27:12;47176.09;;;-142.92;100.00
56456;BME280;42354;53.218;6.564;2023-02-22T06:29:37;47171.97;;;-142.92;100.00
56456;BME280;42354;53.218;6.564;2023-02-22T06:32:02;47163.75;;;-142.92;100.00
56456;BME280;42354;53.218;6.564;2023-02-22T06:34:28;47155.56;;;-142.92;100.00
56456;BME280;42354;53.218;6.564;2023-02-22T06:36:53;47137.09;;;-142.92;100.00
56456;BME280;42354;53.218;6.564;2023-02-22T06:39:19;47147.34;;;-142.92;100.00
56456;BME280;42354;53.218;6.564;2023-02-22T06:41:45;47118.63;;;-142.92;100.00
56456;BME280;42354;53.218;6.564;2023-02-22T06:44:12;47118.63;;;-142.92;100.00
56456;BME280;42354;53.218;6.564;2023-02-22T06:46:38;47055.00;;;-142.92;100.00
56456;BME280;42354;53.218;6.564;2023-02-22T06:49:04;47007.81;;;-142.92;100.00
56456;BME280;42354;53.218;6.564;2023-02-22T06:51:34;46995.50;;;-142.92;100.00
56456;BME280;42354;53.218;6.564;2023-02-22T06:54:01;47003.69;;;-142.92;100.00
56456;BME280;42354;53.218;6.564;2023-02-22T06:56:27;46979.06;;;-142.92;100.00
56456;BME280;42354;53.218;6.564;2023-02-22T06:58:52;46983.19;;;-142.92;100.00
56456;BME280;42354;53.218;6.564;2023-02-22T07:01:17;46970.88;;;-142.92;100.00
56456;BME280;42354;53.218;6.564;2023-02-22T07:03:43;46917.53;;;-142.92;100.00
56456;BME280;42354;53.218;6.564;2023-02-22T07:06:08;46872.38;;;-142.92;99.96
56456;BME280;42354;53.218;6.564;2023-02-22T07:08:35;46835.44;;;-142.92;99.36
56456;BME280;42354;53.218;6.564;2023-02-22T07:11:00;46763.63;;;-142.92;98.91
56456;BME280;42354;53.218;6.564;2023-02-22T07:13:26;46751.31;;;-142.92;98.86
56456;BME280;42354;53.218;6.564;2023-02-22T07:15:51;46847.75;;;-142.92;98.44
56456;BME280;42354;53.218;6.564;2023-02-22T07:18:17;47007.81;;;-142.92;98.25
56456;BME280;42354;53.218;6.564;2023-02-22T07:20:43;47001.66;;;-142.92;98.03
56456;BME280;42354;53.218;6.564;2023-02-22T07:23:08;46995.50;;;-142.92;97.74
56456;BME280;42354;53.218;6.564;2023-02-22T07:25:34;47001.66;;;-142.92;97.60
56456;BME280;42354;53.218;6.564;2023-02-22T07:27:59;47011.91;;;-142.92;97.47
56456;BME280;42354;53.218;6.564;2023-02-22T07:30:30;47024.22;;;-142.92;97.11
56456;BME280;42354;53.218;6.564;2023-02-22T07:33:06;47020.13;;;-142.92;96.21
56456;BME280;42354;53.218;6.564;2023-02-22T07:35:37;47011.91;;;-142.92;96.22
56456;BME280;42354;53.218;6.564;2023-02-22T07:38:06;47028.31;;;-142.92;96.00
56456;BME280;42354;53.218;6.564;2023-02-22T07:40:32;47007.81;;;-142.92;95.66
56456;BME280;42354;53.218;6.564;2023-02-22T07:43:03;47038.59;;;-142.92;95.49
56456;BME280;42354;53.218;6.564;2023-02-22T07:45:32;47005.75;;;-142.92;95.71
56456;BME280;42354;53.218;6.564;2023-02-22T07:47:59;46991.38;;;-142.92;95.54
56456;BME280;42354;53.218;6.564;2023-02-22T07:50:26;47020.13;;;-142.92;94.76
56456;BME280;42354;53.218;6.564;2023-02-22T07:52:55;47016.00;;;-142.92;94.47
56456;BME280;42354;53.218;6.564;2023-02-22T07:55:23;46995.50;;;-142.92;94.76
56456;BME280;42354;53.218;6.564;2023-02-22T07:57:51;47009.84;;;-142.92;94.73
56456;BME280;42354;53.218;6.564;2023-02-22T08:00:23;47016.00;;;-142.92;94.01
56456;BME280;42354;53.218;6.564;2023-02-22T08:02:49;47013.97;;;-142.92;93.74
56456;BME280;42354;53.218;6.564;2023-02-22T08:05:14;47032.44;;;-142.92;93.59
56456;BME280;42354;53.218;6.564;2023-02-22T08:07:40;47007.81;;;-142.92;93.57
56456;BME280;42354;53.218;6.564;2023-02-22T08:10:08;47003.69;;;-142.92;93.41
56456;BME280;42354;53.218;6.564;2023-02-22T08:12:34;47009.84;;;-142.92;92.90
56456;BME280;42354;53.218;6.564;2023-02-22T08:15:00;47022.16;;;-142.92;92.68
56456;BME280;42354;53.218;6.564;2023-02-22T08:17:26;47030.38;;;-142.92;92.52
56456;BME280;42354;53.218;6.564;2023-02-22T08:19:51;47022.16;;;-142.92;92.43
56456;BME280;42354;53.218;6.564;2023-02-22T08:22:16;47005.75;;;-142.92;91.83
56456;BME280;42354;53.218;6.564;2023-02-22T08:24:42;46999.59;;;-142.92;91.56
56456;BME280;42354;53.218;6.564;2023-02-22T08:27:07;47007.81;;;-142.92;91.54
56456;BME280;42354;53.218;6.564;2023-02-22T08:29:34;47011.91;;;-142.92;91.45
56456;BME280;42354;53.218;6.564;2023-02-22T08:31:59;47016.00;;;-142.92;91.58
56456;BME280;42354;53.218;6.564;2023-02-22T08:34:25;47013.97;;;-142.92;91.49
56456;BME280;42354;53.218;6.564;2023-02-22T08:36:50;46991.38;;;-142.92;91.36
56456;BME280;42354;53.218;6.564;2023-02-22T08:39:16;46991.38;;;-142.92;91.38
56456;BME280;42354;53.218;6.564;2023-02-22T08:41:41;47032.44;;;-142.92;91.24
56456;BME280;42354;53.218;6.564;2023-02-22T08:44:06;47030.38;;;-142.92;91.12
56456;BME280;42354;53.218;6.564;2023-02-22T08:46:32;47016.00;;;-142.92;91.01
56456;BME280;42354;53.218;6.564;2023-02-22T08:48:57;47016.00;;;-142.92;90.88
56456;BME280;42354;53.218;6.564;2023-02-22T08:51:23;47005.75;;;-142.92;90.69
56456;BME280;42354;53.218;6.564;2023-02-22T08:53:48;47036.53;;;-142.92;90.61
56456;BME280;42354;53.218;6.564;2023-02-22T08:56:14;47013.97;;;-142.92;90.42
56456;BME280;42354;53.218;6.564;2023-02-22T08:58:39;47013.97;;;-142.92;90.41
56456;BME280;42354;53.218;6.564;2023-02-22T09:01:04;46995.50;;;-142.92;90.41
56456;BME280;42354;53.218;6.564;2023-02-22T09:03:30;47020.13;;;-142.92;90.05
56456;BME280;42354;53.218;6.564;2023-02-22T09:05:55;47013.97;;;-142.92;89.86
56456;BME280;42354;53.218;6.564;2023-02-22T09:08:20;47009.84;;;-142.92;89.87
56456;BME280;42354;53.218;6.564;2023-02-22T09:10:48;47007.81;;;-142.92;89.41
56456;BME280;42354;53.218;6.564;2023-02-22T09:13:14;47016.00;;;-142.92;89.64
56456;BME280;42354;53.218;6.564;2023-02-22T09:15:39;46995.50;;;-142.92;89.59
56456;BME280;42354;53.218;6.564;2023-02-22T09:18:06;46997.53;;;-142.92;89.29
56456;BME280;42354;53.218;6.564;2023-02-22T09:20:32;46999.59;;;-142.92;89.05
56456;BME280;42354;53.218;6.564;2023-02-22T09:23:00;47013.97;;;-142.92;88.76
56456;BME280;42354;53.218;6.564;2023-02-22T09:25:28;47011.91;;;-142.92;88.51
56456;BME280;42354;53.218;6.564;2023-02-22T09:27:54;47036.53;;;-142.92;88.49
56456;BME280;42354;53.218;6.564;2023-02-22T09:30:25;47034.47;;;-142.92;88.19
56456;BME280;42354;53.218;6.564;2023-02-22T09:32:53;46999.59;;;-142.92;88.18
56456;BME280;42354;53.218;6.564;2023-02-22T09:35:20;47013.97;;;-142.92;88.06
56456;BME280;42354;53.218;6.564;2023-02-22T09:37:54;47011.91;;;-142.92;87.84
56456;BME280;42354;53.218;6.564;2023-02-22T09:40:21;47011.91;;;-142.92;87.66
56456;BME280;42354;53.218;6.564;2023-02-22T09:43:12;47016.00;;;-142.92;87.19
56456;BME280;42354;53.218;6.564;2023-02-22T09:48:13;47020.13;;;-142.92;86.75
56456;BME280;42354;53.218;6.564;2023-02-22T09:50:42;46993.44;;;-142.92;86.20
56456;BME280;42354;53.218;6.564;2023-02-22T09:55:44;47024.22;;;-142.92;85.58
56456;BME280;42354;53.218;6.564;2023-02-22T09:58:23;47013.97;;;-142.92;85.40
56456;BME280;42354;53.218;6.564;2023-02-22T10:00:57;47011.91;;;-142.92;84.82
56456;BME280;42354;53.218;6.564;2023-02-22T10:03:29;47034.47;;;-142.92;84.88
56456;BME280;42354;53.218;6.564;2023-02-22T10:06:12;47024.22;;;-142.92;84.62
56456;BME280;42354;53.218;6.564;2023-02-22T10:08:40;47003.69;;;-142.92;85.14
56456;BME280;42354;53.218;6.564;2023-02-22T10:19:04;47024.22;;;-142.92;83.95
56456;BME280;42354;53.218;6.564;2023-02-22T10:21:45;47011.91;;;-142.92;84.41
56456;BME280;42354;53.218;6.564;2023-02-22T10:24:21;47011.91;;;-142.92;84.42
56456;BME280;42354;53.218;6.564;2023-02-22T10:26:52;47016.00;;;-142.92;84.13
56456;BME280;42354;53.218;6.564;2023-02-22T10:29:45;47005.75;;;-142.92;83.40
56456;BME280;42354;53.218;6.564;2023-02-22T10:32:20;47011.91;;;-142.92;83.79
56456;BME280;42354;53.218;6.564;2023-02-22T10:34:50;46999.59;;;-142.92;83.67
56456;BME280;42354;53.218;6.564;2023-02-22T10:37:29;47009.84;;;-142.92;82.92
56456;BME280;42354;53.218;6.564;2023-02-22T10:40:09;47028.31;;;-142.92;82.96
56456;BME280;42354;53.218;6.564;2023-02-22T10:42:36;47016.00;;;-142.92;82.98
56456;BME280;42354;53.218;6.564;2023-02-22T10:45:03;47013.97;;;-142.92;82.94
56456;BME280;42354;53.218;6.564;2023-02-22T10:47:29;47001.66;;;-142.92;82.63
56456;BME280;42354;53.218;6.564;2023-02-22T10:49:56;47028.31;;;-142.92;82.61
56456;BME280;42354;53.218;6.564;2023-02-22T10:52:30;47003.69;;;-142.92;82.42
56456;BME280;42354;53.218;6.564;2023-02-22T10:54:57;46995.50;;;-142.92;82.66
56456;BME280;42354;53.218;6.564;2023-02-22T10:57:29;47003.69;;;-142.92;82.28
56456;BME280;42354;53.218;6.564;2023-02-22T10:59:56;47032.44;;;-142.92;82.55
56456;BME280;42354;53.218;6.564;2023-02-22T11:02:28;47024.22;;;-142.92;82.28
56456;BME280;42354;53.218;6.564;2023-02-22T11:04:56;47020.13;;;-142.92;81.97
56456;BME280;42354;53.218;6.564;2023-02-22T11:07:34;47011.91;;;-142.92;80.96
56456;BME280;42354;53.218;6.564;2023-02-22T11:10:05;47007.81;;;-142.92;80.84
56456;BME280;42354;53.218;6.564;2023-02-22T11:12:40;47022.16;;;-142.92;80.74
56456;BME280;42354;53.218;6.564;2023-02-22T11:17:50;47003.69;;;-142.92;79.77
56456;BME280;42354;53.218;6.564;2023-02-22T11:20:37;47007.81;;;-142.92;78.98
56456;BME280;42354;53.218;6.564;2023-02-22T11:23:04;47028.31;;;-142.92;79.72
56456;BME280;42354;53.218;6.564;2023-02-22T11:25:35;47032.44;;;-142.92;79.21
56456;BME280;42354;53.218;6.564;2023-02-22T11:28:16;47022.16;;;-142.92;77.81
56456;BME280;42354;53.218;6.564;2023-02-22T11:30:45;47009.84;;;-142.92;77.21
56456;BME280;42354;53.218;6.564;2023-02-22T11:33:19;47022.16;;;-142.92;76.41
56456;BME280;42354;53.218;6.564;2023-02-22T11:35:49;47001.66;;;-142.92;76.38
56456;BME280;42354;53.218;6.564;2023-02-22T11:38:27;46999.59;;;-142.92;75.70
56456;BME280;42354;53.218;6.564;2023-02-22T11:41:12;47007.81;;;-142.92;74.86
56456;BME280;42354;53.218;6.564;2023-02-22T11:43:42;47013.97;;;-142.92;74.92
56456;BME280;42354;53.218;6.564;2023-02-22T11:46:12;47011.91;;;-142.92;74.14
56456;BME280;42354;53.218;6.564;2023-02-22T11:48:41;47005.75;;;-142.92;73.51
56456;BME280;42354;53.218;6.564;2023-02-22T11:54:02;47032.44;;;-142.92;74.10
56456;BME280;42354;53.218;6.564;2023-02-22T11:56:44;47020.13;;;-142.92;74.17
56456;BME280;42354;53.218;6.564;2023-02-22T12:01:53;47013.97;;;-142.92;74.53
56456;BME280;42354;53.218;6.564;2023-02-22T12:18:03;47028.31;;;-142.92;76.24
56456;BME280;42354;53.218;6.564;2023-02-22T12:20:39;46997.53;;;-142.92;75.95
56456;BME280;42354;53.218;6.564;2023-02-22T12:23:24;47022.16;;;-142.92;76.04
56456;BME280;42354;53.218;6.564;2023-02-22T12:26:08;47020.13;;;-142.92;75.88
56456;BME280;42354;53.218;6.564;2023-02-22T12:31:15;47030.38;;;-142.92;75.17
56456;BME280;42354;53.218;6.564;2023-02-22T12:33:50;47024.22;;;-142.92;74.91
56456;BME280;42354;53.218;6.564;2023-02-22T12:36:19;47013.97;;;-142.92;74.87
56456;BME280;42354;53.218;6.564;2023-02-22T12:38:55;47005.75;;;-142.92;74.54
56456;BME280;42354;53.218;6.564;2023-02-22T12:41:42;46997.53;;;-142.92;74.03
56456;BME280;42354;53.218;6.564;2023-02-22T12:44:19;47005.75;;;-142.92;74.19
56456;BME280;42354;53.218;6.564;2023-02-22T12:46:50;47024.22;;;-142.92;74.33
56456;BME280;42354;53.218;6.564;2023-02-22T12:49:39;47003.69;;;-142.92;73.77
56456;BME280;42354;53.218;6.564;2023-02-22T12:52:12;47007.81;;;-142.92;74.47
56456;BME280;42354;53.218;6.564;2023-02-22T12:57:36;46997.53;;;-142.92;72.38
56456;BME280;42354;53.218;6.564;2023-02-22T13:00:33;46991.38;;;-142.92;72.25
56456;BME280;42354;53.218;6.564;2023-02-22T13:03:08;47013.97;;;-142.92;73.27
56456;BME280;42354;53.218;6.564;2023-02-22T13:05:43;47016.00;;;-142.92;73.66
56456;BME280;42354;53.218;6.564;2023-02-22T13:11:01;47009.84;;;-142.92;74.18
56456;BME280;42354;53.218;6.564;2023-02-22T13:17:00;47007.81;;;-142.92;74.65
56456;BME280;42354;53.218;6.564;2023-02-22T13:25:00;47011.91;;;-142.92;75.64
56456;BME280;42354;53.218;6.564;2023-02-22T13:27:34;47009.84;;;-142.92;76.07
56456;BME280;42354;53.218;6.564;2023-02-22T13:30:04;47003.69;;;-142.92;76.17
56456;BME280;42354;53.218;6.564;2023-02-22T13:32:36;47001.66;;;-142.92;76.52
56456;BME280;42354;53.218;6.564;2023-02-22T13:46:20;47018.06;;;-142.92;77.49
56456;BME280;42354;53.218;6.564;2023-02-22T13:49:25;47011.91;;;-142.92;77.17
56456;BME280;42354;53.218;6.564;2023-02-22T13:51:57;47026.28;;;-142.92;77.31
56456;BME280;42354;53.218;6.564;2023-02-22T13:54:32;47009.84;;;-142.92;77.74
56456;BME280;42354;53.218;6.564;2023-02-22T13:57:02;47013.97;;;-142.92;77.97
56456;BME280;42354;53.218;6.564;2023-02-22T13:59:35;47011.91;;;-142.92;77.71
56456;BME280;42354;53.218;6.564;2023-02-22T14:02:02;47022.16;;;-142.92;78.12
56456;BME280;42354;53.218;6.564;2023-02-22T14:04:36;47020.13;;;-142.92;77.94
56456;BME280;42354;53.218;6.564;2023-02-22T14:07:49;47001.66;;;-142.92;78.17
56456;BME280;42354;53.218;6.564;2023-02-22T14:09:50;47018.06;;;-142.92;78.25
56456;BME280;42354;53.218;6.564;2023-02-22T14:17:36;47009.84;;;-142.92;78.37
56456;BME280;42354;53.218;6.564;2023-02-22T14:22:30;47001.66;;;-142.92;79.39
56456;BME280;42354;53.218;6.564;2023-02-22T14:24:56;47007.81;;;-142.92;79.50
56456;BME280;42354;53.218;6.564;2023-02-22T14:27:21;47028.31;;;-142.92;79.91
56456;BME280;42354;53.218;6.564;2023-02-22T14:29:55;46997.53;;;-142.92;80.04
56456;BME280;42354;53.218;6.564;2023-02-22T14:32:30;46993.44;;;-142.92;80.42
56456;BME280;42354;53.218;6.564;2023-02-22T14:35:04;47009.84;;;-142.92;80.70
56456;BME280;42354;53.218;6.564;2023-02-22T14:37:37;46991.38;;;-142.92;80.89
56456;BME280;42354;53.218;6.564;2023-02-22T14:42:49;47009.84;;;-142.92;80.99
56456;BME280;42354;53.218;6.564;2023-02-22T14:45:23;47018.06;;;-142.92;80.86